createdAt,value
2023-04-29T00:02:14.077Z,63.06
2023-04-29T00:04:40.733Z,62.87
2023-04-29T00:07:08.878Z,62.80
2023-04-29T00:09:36.114Z,62.85
2023-04-29T00:12:02.537Z,62.82
2023-04-29T00:14:28.984Z,62.67
2023-04-29T00:16:55.441Z,62.53
2023-04-29T00:19:21.867Z,62.47
2023-04-29T00:21:48.363Z,62.38
2023-04-29T00:24:14.693Z,62.66
2023-04-29T00:26:41.254Z,62.75
2023-04-29T00:29:07.681Z,62.90
2023-04-29T00:31:34.125Z,62.73
2023-04-29T00:34:00.611Z,63.21
2023-04-29T00:36:28.540Z,63.27
2023-04-29T00:38:55.081Z,63.42
2023-04-29T00:41:21.524Z,63.53
2023-04-29T00:43:47.963Z,63.80
2023-04-29T00:46:14.392Z,63.71
2023-04-29T00:48:41.442Z,64.00
2023-04-29T00:51:08.574Z,63.78
2023-04-29T00:53:35.654Z,63.93
2023-04-29T00:56:02.865Z,63.89
2023-04-29T00:58:35.259Z,63.69
2023-04-29T01:01:03.667Z,63.98
2023-04-29T01:03:31.674Z,64.02
2023-04-29T01:06:32.115Z,63.94
2023-04-29T01:09:14.217Z,63.88
2023-04-29T01:11:54.296Z,63.87
2023-04-29T01:14:21.857Z,64.58
2023-04-29T01:16:52.052Z,64.38
2023-04-29T01:19:38.779Z,64.37
2023-04-29T01:22:05.199Z,64.56
2023-04-29T01:24:31.633Z,64.68
2023-04-29T01:27:09.654Z,64.66
2023-04-29T01:29:45.719Z,64.47
2023-04-29T01:32:19.119Z,64.71
2023-04-29T01:34:59.775Z,64.52
2023-04-29T01:37:41.911Z,64.67
2023-04-29T01:40:25.504Z,64.76
2023-04-29T01:43:00.460Z,64.98
2023-04-29T01:45:28.764Z,65.10
2023-04-29T01:47:58.725Z,65.30
2023-04-29T01:50:25.165Z,65.16
2023-04-29T01:52:51.527Z,65.26
2023-04-29T01:55:18.052Z,65.49
2023-04-29T01:57:44.478Z,65.46
2023-04-29T02:00:11.841Z,65.61
2023-04-29T02:02:38.434Z,65.75
2023-04-29T02:05:05.130Z,65.75
2023-04-29T02:07:31.639Z,65.73
2023-04-29T02:09:58.101Z,65.67
2023-04-29T02:12:24.516Z,65.74
2023-04-29T02:14:54.265Z,65.44
2023-04-29T02:17:20.762Z,65.74
2023-04-29T02:19:47.210Z,65.65
2023-04-29T02:22:13.572Z,65.62
2023-04-29T02:24:40.216Z,65.58
2023-04-29T02:27:06.830Z,65.69
2023-04-29T02:29:33.389Z,65.73
2023-04-29T02:31:59.864Z,65.87
2023-04-29T02:34:26.251Z,65.76
2023-04-29T02:36:52.658Z,65.76
2023-04-29T02:39:20.544Z,65.94
2023-04-29T02:41:46.948Z,65.83
2023-04-29T02:44:13.412Z,65.84
2023-04-29T02:46:42.505Z,65.88
2023-04-29T02:49:08.835Z,65.95
2023-04-29T02:51:35.380Z,65.75
2023-04-29T02:54:01.806Z,65.87
2023-04-29T02:56:29.362Z,65.68
2023-04-29T02:58:55.807Z,65.64
2023-04-29T03:01:22.452Z,65.80
2023-04-29T03:03:49.240Z,65.61
2023-04-29T03:06:16.129Z,65.37
2023-04-29T03:08:43.166Z,65.04
2023-04-29T03:11:09.512Z,65.09
2023-04-29T03:13:36.053Z,65.33
2023-04-29T03:16:02.590Z,65.24
2023-04-29T03:18:28.921Z,65.32
2023-04-29T03:20:55.424Z,65.56
2023-04-29T03:23:22.401Z,65.42
2023-04-29T03:25:48.834Z,65.27
2023-04-29T03:28:15.366Z,65.40
2023-04-29T03:30:42.210Z,65.49
2023-04-29T03:33:08.606Z,65.85
2023-04-29T03:35:35.076Z,65.95
2023-04-29T03:38:01.615Z,66.08
2023-04-29T03:40:28.018Z,66.04
2023-04-29T03:42:54.451Z,66.27
2023-04-29T03:45:21.216Z,66.17
2023-04-29T03:47:47.661Z,66.51
2023-04-29T03:50:14.078Z,66.42
2023-04-29T03:52:40.516Z,66.60
2023-04-29T03:55:07.263Z,66.58
2023-04-29T03:57:33.601Z,66.64
2023-04-29T03:59:59.935Z,66.56
2023-04-29T04:02:26.611Z,66.81
2023-04-29T04:04:55.149Z,66.88
2023-04-29T04:07:21.880Z,67.09
2023-04-29T04:09:48.296Z,67.43
2023-04-29T04:12:14.650Z,67.28
2023-04-29T04:14:41.196Z,67.56
2023-04-29T04:17:07.546Z,67.55
2023-04-29T04:19:33.950Z,67.64
2023-04-29T04:22:00.402Z,67.74
2023-04-29T04:24:26.861Z,67.67
2023-04-29T04:26:53.237Z,67.97
2023-04-29T04:29:19.673Z,67.91
2023-04-29T04:31:47.209Z,67.92
2023-04-29T04:34:13.818Z,68.04
2023-04-29T04:36:40.220Z,68.25
2023-04-29T04:39:06.754Z,68.28
2023-04-29T04:41:33.412Z,68.22
2023-04-29T04:43:59.820Z,68.16
2023-04-29T04:46:26.270Z,68.19
2023-04-29T04:48:52.685Z,68.33
2023-04-29T04:51:19.155Z,68.19
2023-04-29T04:53:45.670Z,68.18
2023-04-29T04:56:12.111Z,68.16
2023-04-29T04:58:38.464Z,67.78
2023-04-29T05:01:05.006Z,67.84
2023-04-29T05:03:31.700Z,67.58
2023-04-29T05:06:00.305Z,67.52
2023-04-29T05:08:27.008Z,67.43
2023-04-29T05:10:54.271Z,67.36
2023-04-29T05:13:21.138Z,67.61
2023-04-29T05:15:47.687Z,67.46
2023-04-29T05:18:14.108Z,67.56
2023-04-29T05:20:40.525Z,67.57
2023-04-29T05:23:07.106Z,67.61
2023-04-29T05:25:33.521Z,67.73
2023-04-29T05:27:59.954Z,67.59
2023-04-29T05:30:27.060Z,67.75
2023-04-29T05:32:53.599Z,67.88
2023-04-29T05:35:20.083Z,67.68
2023-04-29T05:37:46.643Z,67.75
2023-04-29T05:40:13.233Z,67.74
2023-04-29T05:42:39.663Z,67.84
2023-04-29T05:45:06.721Z,67.71
2023-04-29T05:47:33.360Z,67.79
2023-04-29T05:49:59.795Z,67.94
2023-04-29T05:52:26.363Z,67.97
2023-04-29T05:54:52.892Z,68.02
2023-04-29T05:57:19.307Z,68.17
2023-04-29T05:59:45.843Z,68.03
2023-04-29T06:02:12.480Z,67.84
2023-04-29T06:04:41.163Z,67.89
2023-04-29T06:07:09.260Z,67.68
2023-04-29T06:09:36.926Z,67.55
2023-04-29T06:12:03.747Z,67.80
2023-04-29T06:14:30.294Z,67.62
2023-04-29T06:16:56.912Z,67.61
2023-04-29T06:19:24.903Z,67.50
2023-04-29T06:21:51.519Z,67.71
2023-04-29T06:24:17.978Z,67.64
2023-04-29T06:26:44.508Z,67.62
2023-04-29T06:29:10.938Z,67.29
2023-04-29T06:31:38.256Z,67.41
2023-04-29T06:34:04.842Z,67.07
2023-04-29T06:36:32.202Z,67.19
2023-04-29T06:38:58.847Z,67.42
2023-04-29T06:41:25.505Z,67.56
2023-04-29T06:43:51.918Z,67.50
2023-04-29T06:46:18.360Z,67.58
2023-04-29T06:48:44.880Z,67.60
2023-04-29T06:51:11.381Z,67.54
2023-04-29T06:53:37.766Z,67.27
2023-04-29T06:56:06.645Z,66.97
2023-04-29T06:58:33.211Z,66.36
2023-04-29T07:00:59.791Z,66.16
2023-04-29T07:03:26.671Z,65.59
2023-04-29T07:05:53.208Z,65.52
2023-04-29T07:08:19.630Z,65.63
2023-04-29T07:10:54.582Z,65.57
2023-04-29T07:13:21.157Z,65.37
2023-04-29T07:15:47.544Z,65.28
2023-04-29T07:18:14.053Z,64.60
2023-04-29T07:20:40.496Z,64.61
2023-04-29T07:23:06.942Z,64.49
2023-04-29T07:25:34.123Z,64.38
2023-04-29T07:28:00.564Z,63.88
2023-04-29T07:30:27.255Z,63.59
2023-04-29T07:32:53.746Z,63.33
2023-04-29T07:35:20.787Z,63.25
2023-04-29T07:37:47.268Z,63.07
2023-04-29T07:40:13.820Z,63.03
2023-04-29T07:42:40.359Z,62.63
2023-04-29T07:45:07.439Z,62.13
2023-04-29T07:47:33.965Z,61.86
2023-04-29T07:50:00.902Z,61.68
2023-04-29T07:52:27.422Z,61.49
2023-04-29T07:54:56.126Z,61.27
2023-04-29T07:57:22.663Z,60.82
2023-04-29T07:59:55.414Z,61.42
2023-04-29T08:02:22.060Z,61.20
2023-04-29T08:04:49.237Z,60.78
2023-04-29T08:07:15.828Z,60.05
2023-04-29T08:09:42.189Z,59.44
2023-04-29T08:12:09.121Z,59.36
2023-04-29T08:14:35.748Z,59.45
2023-04-29T08:17:02.096Z,59.15
2023-04-29T08:19:28.538Z,59.17
2023-04-29T08:21:55.078Z,58.85
2023-04-29T08:24:22.709Z,59.06
2023-04-29T08:26:49.084Z,58.79
2023-04-29T08:29:16.120Z,58.35
2023-04-29T08:31:42.588Z,58.46
2023-04-29T08:34:08.966Z,58.41
2023-04-29T08:36:36.967Z,58.55
2023-04-29T08:39:03.373Z,58.00
2023-04-29T08:41:32.411Z,58.16
2023-04-29T08:44:01.025Z,57.96
2023-04-29T08:46:27.793Z,57.81
2023-04-29T08:48:56.442Z,57.52
2023-04-29T08:51:22.904Z,57.46
2023-04-29T08:53:49.370Z,57.29
2023-04-29T08:56:21.774Z,57.42
2023-04-29T08:58:54.351Z,56.94
2023-04-29T09:01:23.061Z,57.34
2023-04-29T09:04:15.855Z,56.09
2023-04-29T09:06:42.301Z,56.12
2023-04-29T09:09:09.573Z,55.75
2023-04-29T09:11:36.995Z,55.56
2023-04-29T09:14:04.393Z,55.62
2023-04-29T09:16:31.119Z,54.97
2023-04-29T09:18:57.721Z,54.81
2023-04-29T09:21:26.022Z,55.15
2023-04-29T09:23:57.488Z,54.77
2023-04-29T09:26:25.055Z,54.64
2023-04-29T09:29:08.150Z,54.58
2023-04-29T09:31:35.082Z,54.77
2023-04-29T09:34:01.558Z,54.03
2023-04-29T09:36:49.084Z,53.95
2023-04-29T09:39:20.711Z,53.33
2023-04-29T09:41:53.216Z,52.37
2023-04-29T09:44:29.207Z,51.97
2023-04-29T09:47:05.041Z,52.02
2023-04-29T09:49:45.959Z,51.27
2023-04-29T09:52:15.096Z,51.04
2023-04-29T09:54:42.457Z,50.68
2023-04-29T09:57:10.706Z,51.02
2023-04-29T09:59:39.640Z,50.70
2023-04-29T10:02:15.398Z,50.34
2023-04-29T10:04:44.389Z,50.10
2023-04-29T10:07:14.868Z,49.43
2023-04-29T10:09:41.583Z,49.08
2023-04-29T10:12:08.370Z,49.65
2023-04-29T10:14:41.800Z,49.23
2023-04-29T10:17:11.491Z,48.56
2023-04-29T10:19:53.602Z,48.67
2023-04-29T10:22:36.112Z,49.27
2023-04-29T10:25:05.920Z,48.79
2023-04-29T10:27:33.995Z,48.36
2023-04-29T10:30:02.255Z,48.46
2023-04-29T10:32:36.959Z,48.36
2023-04-29T10:35:13.685Z,48.37
2023-04-29T10:37:44.618Z,48.25
2023-04-29T10:40:22.319Z,47.52
2023-04-29T10:42:52.844Z,47.21
2023-04-29T10:45:31.706Z,47.91
2023-04-29T10:48:09.055Z,47.56
2023-04-29T10:50:39.750Z,47.23
2023-04-29T10:53:06.179Z,47.17
2023-04-29T10:55:36.600Z,47.08
2023-04-29T10:58:04.345Z,46.16
2023-04-29T11:00:35.503Z,46.57
2023-04-29T11:03:05.589Z,46.06
2023-04-29T11:05:34.377Z,46.35
2023-04-29T11:08:16.365Z,45.75
2023-04-29T11:10:43.927Z,46.79
2023-04-29T11:13:30.544Z,45.68
2023-04-29T11:16:11.320Z,45.76
2023-04-29T11:19:03.907Z,45.87
2023-04-29T11:21:31.043Z,45.71
2023-04-29T11:23:57.636Z,45.54
2023-04-29T11:26:24.684Z,45.39
2023-04-29T11:28:52.096Z,45.56
2023-04-29T11:31:18.445Z,45.77
2023-04-29T11:33:44.907Z,45.17
2023-04-29T11:36:11.542Z,45.19
2023-04-29T11:38:40.805Z,44.71
2023-04-29T11:41:07.275Z,44.49
2023-04-29T11:43:33.609Z,44.35
2023-04-29T11:45:59.969Z,45.17
2023-04-29T11:48:26.553Z,44.97
2023-04-29T11:50:59.711Z,45.58
2023-04-29T11:53:27.785Z,45.41
2023-04-29T11:55:55.230Z,45.29
2023-04-29T11:58:22.504Z,45.42
2023-04-29T12:00:49.709Z,45.35
2023-04-29T12:03:18.000Z,45.30
2023-04-29T12:05:51.932Z,45.83
2023-04-29T12:08:26.426Z,46.02
2023-04-29T12:10:54.697Z,46.33
2023-04-29T12:13:23.638Z,45.73
2023-04-29T12:15:51.442Z,45.01
2023-04-29T12:18:19.525Z,44.26
2023-04-29T12:20:46.084Z,44.18
2023-04-29T12:23:18.925Z,44.02
2023-04-29T12:25:53.095Z,43.73
2023-04-29T12:28:20.041Z,43.18
2023-04-29T12:30:47.330Z,42.54
2023-04-29T12:33:21.885Z,42.31
2023-04-29T12:35:52.114Z,42.53
2023-04-29T12:38:27.719Z,42.93
2023-04-29T12:40:56.392Z,42.47
2023-04-29T12:43:29.987Z,42.34
2023-04-29T12:46:02.778Z,40.59
2023-04-29T12:48:46.500Z,42.12
2023-04-29T12:51:13.257Z,41.53
2023-04-29T12:53:39.708Z,41.32
2023-04-29T12:56:06.822Z,41.29
2023-04-29T12:58:34.754Z,41.22
2023-04-29T13:01:02.007Z,41.08
2023-04-29T13:03:28.965Z,41.59
2023-04-29T13:05:55.902Z,41.51
2023-04-29T13:08:22.985Z,41.39
2023-04-29T13:10:49.627Z,41.73
2023-04-29T13:13:16.218Z,41.78
2023-04-29T13:15:42.583Z,41.60
2023-04-29T13:18:08.992Z,42.28
2023-04-29T13:20:41.130Z,42.30
2023-04-29T13:23:08.441Z,41.77
2023-04-29T13:25:34.776Z,41.09
2023-04-29T13:28:01.106Z,41.13
2023-04-29T13:30:27.554Z,41.16
2023-04-29T13:32:56.752Z,41.75
2023-04-29T13:35:29.584Z,41.39
2023-04-29T13:37:56.949Z,41.43
2023-04-29T13:40:27.488Z,40.95
2023-04-29T13:43:02.160Z,41.16
2023-04-29T13:45:30.817Z,41.69
2023-04-29T13:48:09.446Z,40.94
2023-04-29T13:51:04.820Z,40.44
2023-04-29T13:56:58.214Z,39.46
2023-04-29T14:01:44.152Z,38.63
2023-04-29T14:04:03.364Z,39.25
2023-04-29T14:06:32.176Z,39.29
2023-04-29T14:09:00.480Z,39.65
2023-04-29T14:11:27.598Z,39.71
2023-04-29T14:13:53.935Z,39.44
2023-04-29T14:16:21.603Z,39.55
2023-04-29T14:18:47.948Z,39.36
2023-04-29T14:21:14.492Z,39.19
2023-04-29T14:23:41.156Z,38.60
2023-04-29T14:26:22.997Z,38.28
2023-04-29T14:28:57.646Z,38.63
2023-04-29T14:31:28.439Z,38.79
2023-04-29T14:33:55.778Z,38.43
2023-04-29T14:36:22.248Z,38.62
2023-04-29T14:38:48.885Z,38.68
2023-04-29T14:41:15.879Z,38.93
2023-04-29T14:43:42.829Z,38.94
2023-04-29T14:46:09.492Z,39.14
2023-04-29T14:48:36.006Z,39.09
2023-04-29T14:51:02.426Z,39.12
2023-04-29T14:53:28.774Z,39.45
2023-04-29T14:55:55.305Z,39.10
2023-04-29T14:58:21.703Z,39.26
2023-04-29T15:00:48.122Z,39.14
2023-04-29T15:03:22.075Z,39.49
2023-04-29T15:05:50.656Z,39.71
2023-04-29T15:08:17.958Z,39.87
2023-04-29T15:10:48.285Z,39.30
2023-04-29T15:13:14.811Z,38.64
2023-04-29T15:15:41.414Z,39.04
2023-04-29T15:18:08.738Z,38.89
2023-04-29T15:20:36.957Z,38.47
2023-04-29T15:23:04.423Z,38.65
2023-04-29T15:25:33.563Z,38.60
2023-04-29T15:28:00.353Z,38.49
2023-04-29T15:30:27.415Z,38.64
2023-04-29T15:32:55.232Z,38.89
2023-04-29T15:35:21.870Z,39.12
2023-04-29T15:37:48.429Z,38.99
2023-04-29T15:40:14.921Z,39.36
2023-04-29T15:42:41.463Z,39.55
2023-04-29T15:45:11.264Z,39.70
2023-04-29T15:47:37.798Z,39.30
2023-04-29T15:50:04.496Z,39.61
2023-04-29T15:52:31.286Z,39.49
2023-04-29T15:54:58.328Z,39.75
2023-04-29T15:57:25.724Z,39.10
2023-04-29T15:59:52.333Z,39.07
2023-04-29T16:02:20.276Z,39.48
2023-04-29T16:04:47.021Z,39.06
2023-04-29T16:07:13.719Z,39.33
2023-04-29T16:09:40.128Z,39.54
2023-04-29T16:12:06.564Z,39.58
2023-04-29T16:14:32.903Z,39.62
2023-04-29T16:17:00.382Z,39.86
2023-04-29T16:19:26.948Z,39.01
2023-04-29T16:21:53.300Z,39.49
2023-04-29T16:24:19.707Z,39.69
2023-04-29T16:26:47.973Z,39.47
2023-04-29T16:29:14.322Z,39.39
2023-04-29T16:31:40.852Z,39.55
2023-04-29T16:34:07.339Z,39.45
2023-04-29T16:36:33.812Z,39.20
2023-04-29T16:39:00.242Z,39.77
2023-04-29T16:41:26.836Z,39.61
2023-04-29T16:43:54.019Z,39.57
2023-04-29T16:46:20.585Z,39.42
2023-04-29T16:48:47.298Z,39.48
2023-04-29T16:51:14.015Z,38.85
2023-04-29T16:53:40.556Z,39.27
2023-04-29T16:56:07.243Z,38.94
2023-04-29T16:58:33.817Z,39.13
2023-04-29T17:01:00.325Z,39.02
2023-04-29T17:03:26.845Z,38.76
2023-04-29T17:05:53.299Z,38.79
2023-04-29T17:08:19.971Z,38.73
2023-04-29T17:10:46.692Z,38.41
2023-04-29T17:13:13.097Z,37.72
2023-04-29T17:15:40.231Z,37.23
2023-04-29T17:18:06.845Z,36.79
2023-04-29T17:20:33.848Z,37.26
2023-04-29T17:23:00.423Z,36.89
2023-04-29T17:25:26.767Z,36.70
2023-04-29T17:27:53.153Z,36.42
2023-04-29T17:30:19.687Z,35.93
2023-04-29T17:32:46.766Z,35.64
2023-04-29T17:35:13.208Z,35.46
2023-04-29T17:37:39.645Z,35.47
2023-04-29T17:40:06.684Z,35.47
2023-04-29T17:42:33.028Z,35.76
2023-04-29T17:44:59.414Z,35.67
2023-04-29T17:47:25.866Z,35.61
2023-04-29T17:49:53.153Z,35.51
2023-04-29T17:52:21.421Z,35.52
2023-04-29T17:54:50.729Z,35.43
2023-04-29T17:57:17.249Z,35.31
2023-04-29T17:59:43.654Z,34.95
2023-04-29T18:02:10.140Z,34.94
2023-04-29T18:04:37.290Z,34.78
2023-04-29T18:07:03.872Z,34.71
2023-04-29T18:09:30.431Z,34.64
2023-04-29T18:11:56.766Z,34.79
2023-04-29T18:14:23.430Z,34.78
2023-04-29T18:16:49.937Z,34.75
2023-04-29T18:19:16.350Z,35.10
2023-04-29T18:21:42.825Z,34.91
2023-04-29T18:24:09.167Z,34.99
2023-04-29T18:26:35.792Z,34.60
2023-04-29T18:29:02.260Z,34.76
2023-04-29T18:31:29.259Z,34.94
2023-04-29T18:33:55.695Z,35.04
2023-04-29T18:36:23.587Z,35.79
2023-04-29T18:38:50.450Z,35.51
2023-04-29T18:41:16.787Z,36.03
2023-04-29T18:43:43.196Z,36.50
2023-04-29T18:46:09.620Z,36.60
2023-04-29T18:48:36.535Z,36.68
2023-04-29T18:51:04.340Z,37.18
2023-04-29T18:53:31.690Z,37.49
2023-04-29T18:55:58.118Z,37.31
2023-04-29T18:58:26.788Z,38.14
2023-04-29T19:00:53.596Z,38.41
2023-04-29T19:03:20.455Z,38.57
2023-04-29T19:05:48.145Z,38.83
2023-04-29T19:08:16.374Z,38.82
2023-04-29T19:10:44.123Z,39.39
2023-04-29T19:13:11.406Z,39.33
2023-04-29T19:15:37.933Z,39.77
2023-04-29T19:18:04.966Z,40.22
2023-04-29T19:20:31.621Z,40.20
2023-04-29T19:22:58.015Z,40.59
2023-04-29T19:25:26.248Z,41.00
2023-04-29T19:27:53.531Z,41.39
2023-04-29T19:30:20.016Z,41.63
2023-04-29T19:32:47.073Z,41.95
2023-04-29T19:35:13.639Z,42.49
2023-04-29T19:37:40.515Z,42.77
2023-04-29T19:40:10.325Z,43.45
2023-04-29T19:42:37.896Z,43.79
2023-04-29T19:45:07.476Z,43.89
2023-04-29T19:47:34.772Z,44.41
2023-04-29T19:50:02.059Z,45.09
2023-04-29T19:52:29.828Z,45.39
2023-04-29T19:54:56.650Z,46.13
2023-04-29T19:57:23.348Z,46.34
2023-04-29T19:59:49.793Z,46.12
2023-04-29T20:02:16.336Z,47.22
2023-04-29T20:04:42.961Z,47.60
2023-04-29T20:07:09.380Z,47.81
2023-04-29T20:09:37.169Z,48.60
2023-04-29T20:12:04.040Z,48.77
2023-04-29T20:14:31.874Z,48.94
2023-04-29T20:17:00.568Z,49.35
2023-04-29T20:19:27.497Z,49.90
2023-04-29T20:21:54.159Z,49.92
2023-04-29T20:24:20.578Z,50.10
2023-04-29T20:26:47.593Z,50.81
2023-04-29T20:29:14.042Z,50.81
2023-04-29T20:31:40.753Z,51.01
2023-04-29T20:34:07.295Z,51.28
2023-04-29T20:36:33.762Z,51.16
2023-04-29T20:39:00.981Z,51.52
2023-04-29T20:41:28.881Z,51.64
2023-04-29T20:43:56.098Z,51.70
2023-04-29T20:46:24.614Z,52.17
2023-04-29T20:48:52.385Z,52.06
2023-04-29T20:51:18.826Z,52.39
2023-04-29T20:53:45.552Z,52.51
2023-04-29T20:56:11.959Z,52.60
2023-04-29T20:58:38.526Z,52.79
2023-04-29T21:01:05.014Z,52.77
2023-04-29T21:03:31.437Z,53.11
2023-04-29T21:05:58.110Z,53.01
2023-04-29T21:08:24.521Z,53.56
2023-04-29T21:10:51.348Z,53.75
2023-04-29T21:13:17.933Z,53.51
2023-04-29T21:15:47.009Z,53.30
2023-04-29T21:18:14.133Z,53.57
2023-04-29T21:20:40.704Z,53.41
2023-04-29T21:23:07.089Z,53.42
2023-04-29T21:25:33.484Z,53.72
2023-04-29T21:27:59.874Z,53.65
2023-04-29T21:30:26.248Z,53.74
2023-04-29T21:32:53.247Z,53.80
2023-04-29T21:35:19.995Z,53.68
2023-04-29T21:37:47.064Z,53.96
2023-04-29T21:40:14.269Z,53.99
2023-04-29T21:42:43.277Z,53.98
2023-04-29T21:45:10.294Z,54.14
2023-04-29T21:47:36.883Z,53.92
2023-04-29T21:50:03.410Z,53.95
2023-04-29T21:52:34.865Z,54.27
2023-04-29T21:55:02.372Z,54.02
2023-04-29T21:57:42.669Z,54.12
2023-04-29T22:00:20.640Z,54.25
2023-04-29T22:02:47.158Z,54.20
2023-04-29T22:05:13.508Z,54.33
2023-04-29T22:07:39.945Z,54.46
2023-04-29T22:10:06.981Z,54.43
2023-04-29T22:12:33.308Z,54.37
2023-04-29T22:14:59.788Z,54.14
2023-04-29T22:17:26.235Z,54.21
2023-04-29T22:19:52.794Z,54.22
2023-04-29T22:22:19.382Z,54.25
2023-04-29T22:24:45.812Z,54.17
2023-04-29T22:27:12.133Z,54.12
2023-04-29T22:29:39.235Z,53.94
2023-04-29T22:32:05.801Z,54.18
2023-04-29T22:34:32.289Z,54.27
2023-04-29T22:36:58.655Z,54.20
2023-04-29T22:39:25.337Z,53.96
2023-04-29T22:41:51.675Z,54.04
2023-04-29T22:44:18.027Z,54.22
2023-04-29T22:46:44.428Z,54.29
2023-04-29T22:49:10.929Z,54.08
2023-04-29T22:51:37.356Z,54.42
2023-04-29T22:54:03.868Z,54.27
2023-04-29T22:56:30.235Z,54.19
2023-04-29T22:58:56.567Z,54.49
2023-04-29T23:01:23.162Z,54.31
2023-04-29T23:03:49.560Z,54.17
2023-04-29T23:06:16.063Z,54.12
2023-04-29T23:08:44.107Z,54.76
2023-04-29T23:11:11.421Z,54.51
2023-04-29T23:13:37.780Z,54.47
2023-04-29T23:16:04.393Z,54.57
2023-04-29T23:18:30.867Z,54.65
2023-04-29T23:20:57.383Z,54.63
2023-04-29T23:23:23.818Z,54.49
2023-04-29T23:25:50.165Z,54.54
2023-04-29T23:28:16.526Z,54.46
2023-04-29T23:30:42.862Z,54.90
2023-04-29T23:33:09.383Z,54.88
2023-04-29T23:35:35.787Z,54.99
2023-04-29T23:38:02.142Z,55.13
2023-04-29T23:40:29.045Z,55.29
2023-04-29T23:42:55.875Z,55.17
2023-04-29T23:45:22.290Z,55.32
2023-04-29T23:47:48.736Z,55.57
2023-04-29T23:50:15.153Z,55.20
2023-04-29T23:52:41.569Z,55.38
2023-04-29T23:55:08.864Z,55.75
2023-04-29T23:57:35.264Z,55.49
